sensor_id;sensor_type;location;lat;lon;timestamp;temperature;humidity
59556;DHT22;45374;52.746;6.304;2022-09-09T00:00:24;13.60;99.90
59556;DHT22;45374;52.746;6.304;2022-09-09T00:03:17;13.60;99.90
59556;DHT22;45374;52.746;6.304;2022-09-09T00:05:52;13.50;99.90
59556;DHT22;45374;52.746;6.304;2022-09-09T00:08:27;13.60;99.90
59556;DHT22;45374;52.746;6.304;2022-09-09T00:10:58;13.50;99.90
59556;DHT22;45374;52.746;6.304;2022-09-09T00:13:45;13.40;99.90
59556;DHT22;45374;52.746;6.304;2022-09-09T00:16:27;13.60;99.90
59556;DHT22;45374;52.746;6.304;2022-09-09T00:19:27;13.50;99.90
59556;DHT22;45374;52.746;6.304;2022-09-09T00:24:55;13.40;99.90
59556;DHT22;45374;52.746;6.304;2022-09-09T00:27:41;13.60;99.90
59556;DHT22;45374;52.746;6.304;2022-09-09T00:32:44;13.60;99.90
59556;DHT22;45374;52.746;6.304;2022-09-09T00:37:35;13.60;99.90
59556;DHT22;45374;52.746;6.304;2022-09-09T00:40:11;13.60;99.90
59556;DHT22;45374;52.746;6.304;2022-09-09T00:42:43;13.60;99.90
59556;DHT22;45374;52.746;6.304;2022-09-09T00:48:05;13.60;99.90
59556;DHT22;45374;52.746;6.304;2022-09-09T00:55:43;13.50;99.90
59556;DHT22;45374;52.746;6.304;2022-09-09T00:58:10;13.70;99.90
59556;DHT22;45374;52.746;6.304;2022-09-09T01:00:46;13.60;99.90
59556;DHT22;45374;52.746;6.304;2022-09-09T01:03:33;13.70;99.90
59556;DHT22;45374;52.746;6.304;2022-09-09T01:06:20;13.60;99.90
59556;DHT22;45374;52.746;6.304;2022-09-09T01:09:33;13.60;99.90
59556;DHT22;45374;52.746;6.304;2022-09-09T01:12:23;13.70;99.90
59556;DHT22;45374;52.746;6.304;2022-09-09T01:14:52;13.80;99.90
59556;DHT22;45374;52.746;6.304;2022-09-09T01:17:32;13.80;99.90
59556;DHT22;45374;52.746;6.304;2022-09-09T01:23:04;13.80;99.90
59556;DHT22;45374;52.746;6.304;2022-09-09T01:28:31;14.00;99.90
59556;DHT22;45374;52.746;6.304;2022-09-09T01:30:58;13.90;99.90
59556;DHT22;45374;52.746;6.304;2022-09-09T01:33:25;13.90;99.90
59556;DHT22;45374;52.746;6.304;2022-09-09T01:35:55;14.10;99.90
59556;DHT22;45374;52.746;6.304;2022-09-09T01:38:23;13.90;99.90
59556;DHT22;45374;52.746;6.304;2022-09-09T01:40:51;14.00;99.90
59556;DHT22;45374;52.746;6.304;2022-09-09T01:43:21;14.10;99.90
59556;DHT22;45374;52.746;6.304;2022-09-09T01:45:49;14.10;99.90
59556;DHT22;45374;52.746;6.304;2022-09-09T01:48:18;14.00;99.90
59556;DHT22;45374;52.746;6.304;2022-09-09T01:50:44;14.20;99.90
59556;DHT22;45374;52.746;6.304;2022-09-09T01:53:10;14.20;99.90
59556;DHT22;45374;52.746;6.304;2022-09-09T01:55:42;14.10;99.90
59556;DHT22;45374;52.746;6.304;2022-09-09T01:58:32;14.20;99.90
59556;DHT22;45374;52.746;6.304;2022-09-09T02:03:53;14.10;99.90
59556;DHT22;45374;52.746;6.304;2022-09-09T02:06:40;14.20;99.90
59556;DHT22;45374;52.746;6.304;2022-09-09T02:09:07;14.20;99.90
59556;DHT22;45374;52.746;6.304;2022-09-09T02:11:37;14.20;99.90
59556;DHT22;45374;52.746;6.304;2022-09-09T02:14:08;14.10;99.90
59556;DHT22;45374;52.746;6.304;2022-09-09T02:19:06;14.30;99.90
59556;DHT22;45374;52.746;6.304;2022-09-09T02:21:34;14.20;99.90
59556;DHT22;45374;52.746;6.304;2022-09-09T02:24:05;14.20;99.90
59556;DHT22;45374;52.746;6.304;2022-09-09T02:26:34;14.30;99.90
59556;DHT22;45374;52.746;6.304;2022-09-09T02:29:02;14.10;99.90
59556;DHT22;45374;52.746;6.304;2022-09-09T02:31:31;14.30;99.90
59556;DHT22;45374;52.746;6.304;2022-09-09T02:34:01;14.30;99.90
59556;DHT22;45374;52.746;6.304;2022-09-09T02:36:31;14.10;99.90
59556;DHT22;45374;52.746;6.304;2022-09-09T02:39:00;14.30;99.90
59556;DHT22;45374;52.746;6.304;2022-09-09T02:41:31;14.40;99.90
59556;DHT22;45374;52.746;6.304;2022-09-09T02:43:57;14.40;99.90
59556;DHT22;45374;52.746;6.304;2022-09-09T02:49:21;14.20;99.90
59556;DHT22;45374;52.746;6.304;2022-09-09T02:52:08;14.20;99.90
59556;DHT22;45374;52.746;6.304;2022-09-09T02:54:38;14.40;99.90
59556;DHT22;45374;52.746;6.304;2022-09-09T02:57:11;14.30;99.90
59556;DHT22;45374;52.746;6.304;2022-09-09T02:59:38;14.20;99.90
59556;DHT22;45374;52.746;6.304;2022-09-09T03:02:04;14.40;99.90
59556;DHT22;45374;52.746;6.304;2022-09-09T03:04:30;14.30;99.90
59556;DHT22;45374;52.746;6.304;2022-09-09T03:06:57;14.30;99.90
59556;DHT22;45374;52.746;6.304;2022-09-09T03:09:23;14.20;99.90
59556;DHT22;45374;52.746;6.304;2022-09-09T03:11:49;14.40;99.90
59556;DHT22;45374;52.746;6.304;2022-09-09T03:14:15;14.40;99.90
59556;DHT22;45374;52.746;6.304;2022-09-09T03:16:41;14.20;99.90
59556;DHT22;45374;52.746;6.304;2022-09-09T03:19:08;14.20;99.90
59556;DHT22;45374;52.746;6.304;2022-09-09T03:21:34;14.30;99.90
59556;DHT22;45374;52.746;6.304;2022-09-09T03:24:01;14.50;99.90
59556;DHT22;45374;52.746;6.304;2022-09-09T03:26:29;14.20;99.90
59556;DHT22;45374;52.746;6.304;2022-09-09T03:28:55;14.40;99.90
59556;DHT22;45374;52.746;6.304;2022-09-09T03:31:20;14.50;99.90
59556;DHT22;45374;52.746;6.304;2022-09-09T03:33:46;14.30;99.90
59556;DHT22;45374;52.746;6.304;2022-09-09T03:36:12;14.40;99.90
59556;DHT22;45374;52.746;6.304;2022-09-09T03:38:37;14.50;99.90
59556;DHT22;45374;52.746;6.304;2022-09-09T03:41:03;14.40;99.90
59556;DHT22;45374;52.746;6.304;2022-09-09T03:43:29;14.40;99.90
59556;DHT22;45374;52.746;6.304;2022-09-09T03:45:55;14.30;99.90
59556;DHT22;45374;52.746;6.304;2022-09-09T03:48:24;14.50;99.90
59556;DHT22;45374;52.746;6.304;2022-09-09T03:50:52;14.30;99.90
59556;DHT22;45374;52.746;6.304;2022-09-09T03:53:20;14.40;99.90
59556;DHT22;45374;52.746;6.304;2022-09-09T03:55:48;14.30;99.90
59556;DHT22;45374;52.746;6.304;2022-09-09T03:58:16;14.40;99.90
59556;DHT22;45374;52.746;6.304;2022-09-09T04:00:53;14.30;99.90
59556;DHT22;45374;52.746;6.304;2022-09-09T04:03:18;14.10;99.90
59556;DHT22;45374;52.746;6.304;2022-09-09T04:05:44;14.10;99.90
59556;DHT22;45374;52.746;6.304;2022-09-09T04:08:10;14.30;99.90
59556;DHT22;45374;52.746;6.304;2022-09-09T04:10:36;14.30;99.90
59556;DHT22;45374;52.746;6.304;2022-09-09T04:13:03;14.20;99.90
59556;DHT22;45374;52.746;6.304;2022-09-09T04:15:30;14.20;99.90
59556;DHT22;45374;52.746;6.304;2022-09-09T04:17:56;14.10;99.90
59556;DHT22;45374;52.746;6.304;2022-09-09T04:20:21;14.10;99.90
59556;DHT22;45374;52.746;6.304;2022-09-09T04:22:48;14.20;99.90
59556;DHT22;45374;52.746;6.304;2022-09-09T04:25:13;14.10;99.90
59556;DHT22;45374;52.746;6.304;2022-09-09T04:27:39;14.20;99.90
59556;DHT22;45374;52.746;6.304;2022-09-09T04:30:06;14.10;99.90
59556;DHT22;45374;52.746;6.304;2022-09-09T04:32:35;14.10;99.90
59556;DHT22;45374;52.746;6.304;2022-09-09T04:35:02;14.00;99.90
59556;DHT22;45374;52.746;6.304;2022-09-09T04:37:28;14.00;99.90
59556;DHT22;45374;52.746;6.304;2022-09-09T04:39:54;14.00;99.90
59556;DHT22;45374;52.746;6.304;2022-09-09T04:42:19;14.10;99.90
59556;DHT22;45374;52.746;6.304;2022-09-09T04:44:45;13.90;99.90
59556;DHT22;45374;52.746;6.304;2022-09-09T04:47:11;13.90;99.90
59556;DHT22;45374;52.746;6.304;2022-09-09T04:49:36;13.90;99.90
59556;DHT22;45374;52.746;6.304;2022-09-09T04:52:04;14.00;99.90
59556;DHT22;45374;52.746;6.304;2022-09-09T04:54:29;13.90;99.90
59556;DHT22;45374;52.746;6.304;2022-09-09T04:56:55;13.90;99.90
59556;DHT22;45374;52.746;6.304;2022-09-09T04:59:21;13.80;99.90
59556;DHT22;45374;52.746;6.304;2022-09-09T05:01:48;13.90;99.90
59556;DHT22;45374;52.746;6.304;2022-09-09T05:04:14;14.00;99.90
59556;DHT22;45374;52.746;6.304;2022-09-09T05:06:44;13.80;99.90
59556;DHT22;45374;52.746;6.304;2022-09-09T05:09:11;13.90;99.90
59556;DHT22;45374;52.746;6.304;2022-09-09T05:11:36;13.70;99.90
59556;DHT22;45374;52.746;6.304;2022-09-09T05:14:03;13.90;99.90
59556;DHT22;45374;52.746;6.304;2022-09-09T05:16:29;13.70;99.90
59556;DHT22;45374;52.746;6.304;2022-09-09T05:18:55;13.80;99.90
59556;DHT22;45374;52.746;6.304;2022-09-09T05:21:23;13.80;99.90
59556;DHT22;45374;52.746;6.304;2022-09-09T05:23:49;13.70;99.90
59556;DHT22;45374;52.746;6.304;2022-09-09T05:26:17;13.80;99.90
59556;DHT22;45374;52.746;6.304;2022-09-09T05:28:44;13.60;99.90
59556;DHT22;45374;52.746;6.304;2022-09-09T05:31:11;13.80;99.90
59556;DHT22;45374;52.746;6.304;2022-09-09T05:33:38;13.90;99.90
59556;DHT22;45374;52.746;6.304;2022-09-09T05:36:08;13.70;99.90
59556;DHT22;45374;52.746;6.304;2022-09-09T05:38:34;13.90;99.90
59556;DHT22;45374;52.746;6.304;2022-09-09T05:41:01;13.80;99.90
59556;DHT22;45374;52.746;6.304;2022-09-09T05:43:28;13.80;99.90
59556;DHT22;45374;52.746;6.304;2022-09-09T05:48:31;14.00;99.90
59556;DHT22;45374;52.746;6.304;2022-09-09T05:50:59;13.90;99.90
59556;DHT22;45374;52.746;6.304;2022-09-09T05:53:29;13.80;99.90
59556;DHT22;45374;52.746;6.304;2022-09-09T05:56:12;13.80;99.90
59556;DHT22;45374;52.746;6.304;2022-09-09T05:58:39;13.80;99.90
59556;DHT22;45374;52.746;6.304;2022-09-09T06:01:07;13.90;99.90
59556;DHT22;45374;52.746;6.304;2022-09-09T06:03:38;13.80;99.90
59556;DHT22;45374;52.746;6.304;2022-09-09T06:06:06;13.90;99.90
59556;DHT22;45374;52.746;6.304;2022-09-09T06:08:34;13.90;99.90
59556;DHT22;45374;52.746;6.304;2022-09-09T06:11:14;14.00;99.90
59556;DHT22;45374;52.746;6.304;2022-09-09T06:13:40;14.00;99.90
59556;DHT22;45374;52.746;6.304;2022-09-09T06:16:11;13.80;99.90
59556;DHT22;45374;52.746;6.304;2022-09-09T06:18:37;14.00;99.90
59556;DHT22;45374;52.746;6.304;2022-09-09T06:21:05;13.90;99.90
59556;DHT22;45374;52.746;6.304;2022-09-09T06:23:32;13.90;99.90
59556;DHT22;45374;52.746;6.304;2022-09-09T06:26:05;14.10;99.90
59556;DHT22;45374;52.746;6.304;2022-09-09T06:28:35;14.20;99.90
59556;DHT22;45374;52.746;6.304;2022-09-09T06:31:12;14.20;99.90
59556;DHT22;45374;52.746;6.304;2022-09-09T06:33:39;14.30;99.90
59556;DHT22;45374;52.746;6.304;2022-09-09T06:36:10;14.30;99.90
59556;DHT22;45374;52.746;6.304;2022-09-09T06:38:37;14.20;99.90
59556;DHT22;45374;52.746;6.304;2022-09-09T06:41:03;14.20;99.90
59556;DHT22;45374;52.746;6.304;2022-09-09T06:43:29;14.20;99.90
59556;DHT22;45374;52.746;6.304;2022-09-09T06:45:59;14.50;99.90
59556;DHT22;45374;52.746;6.304;2022-09-09T06:48:25;14.60;99.90
59556;DHT22;45374;52.746;6.304;2022-09-09T06:51:20;14.60;99.90
59556;DHT22;45374;52.746;6.304;2022-09-09T06:53:47;14.50;99.90
59556;DHT22;45374;52.746;6.304;2022-09-09T06:56:23;14.50;99.90
59556;DHT22;45374;52.746;6.304;2022-09-09T06:58:52;14.70;99.90
59556;DHT22;45374;52.746;6.304;2022-09-09T07:01:29;14.90;99.90
59556;DHT22;45374;52.746;6.304;2022-09-09T07:03:56;14.90;99.90
59556;DHT22;45374;52.746;6.304;2022-09-09T07:06:29;14.90;99.90
59556;DHT22;45374;52.746;6.304;2022-09-09T07:09:00;15.00;99.90
59556;DHT22;45374;52.746;6.304;2022-09-09T07:11:28;15.30;99.90
59556;DHT22;45374;52.746;6.304;2022-09-09T07:13:56;15.20;99.90
59556;DHT22;45374;52.746;6.304;2022-09-09T07:16:22;15.40;99.90
59556;DHT22;45374;52.746;6.304;2022-09-09T07:18:52;15.50;99.90
59556;DHT22;45374;52.746;6.304;2022-09-09T07:21:18;15.50;99.90
59556;DHT22;45374;52.746;6.304;2022-09-09T07:23:44;15.50;99.90
59556;DHT22;45374;52.746;6.304;2022-09-09T07:26:12;15.70;99.90
59556;DHT22;45374;52.746;6.304;2022-09-09T07:28:38;15.50;99.90
59556;DHT22;45374;52.746;6.304;2022-09-09T07:31:05;15.60;99.90
59556;DHT22;45374;52.746;6.304;2022-09-09T07:33:33;15.80;99.90
59556;DHT22;45374;52.746;6.304;2022-09-09T07:36:20;15.80;99.90
59556;DHT22;45374;52.746;6.304;2022-09-09T07:38:49;15.80;99.90
59556;DHT22;45374;52.746;6.304;2022-09-09T07:41:28;15.70;99.90
59556;DHT22;45374;52.746;6.304;2022-09-09T07:43:55;15.70;99.90
59556;DHT22;45374;52.746;6.304;2022-09-09T07:46:23;16.00;99.90
59556;DHT22;45374;52.746;6.304;2022-09-09T07:48:52;16.00;99.90
59556;DHT22;45374;52.746;6.304;2022-09-09T07:51:24;16.10;99.90
59556;DHT22;45374;52.746;6.304;2022-09-09T07:53:58;16.00;99.90
59556;DHT22;45374;52.746;6.304;2022-09-09T07:56:26;16.10;99.90
59556;DHT22;45374;52.746;6.304;2022-09-09T07:58:53;16.20;99.90
59556;DHT22;45374;52.746;6.304;2022-09-09T08:01:31;16.00;99.90
59556;DHT22;45374;52.746;6.304;2022-09-09T08:04:03;16.10;99.90
59556;DHT22;45374;52.746;6.304;2022-09-09T08:06:34;16.20;99.90
59556;DHT22;45374;52.746;6.304;2022-09-09T08:09:00;16.20;99.90
59556;DHT22;45374;52.746;6.304;2022-09-09T08:11:27;16.30;99.90
59556;DHT22;45374;52.746;6.304;2022-09-09T08:13:54;16.40;99.90
59556;DHT22;45374;52.746;6.304;2022-09-09T08:16:22;16.40;99.90
59556;DHT22;45374;52.746;6.304;2022-09-09T08:18:49;16.70;99.90
59556;DHT22;45374;52.746;6.304;2022-09-09T08:21:21;16.60;99.90
59556;DHT22;45374;52.746;6.304;2022-09-09T08:23:47;16.80;99.90
59556;DHT22;45374;52.746;6.304;2022-09-09T08:26:18;16.80;99.90
59556;DHT22;45374;52.746;6.304;2022-09-09T08:28:47;16.90;99.90
59556;DHT22;45374;52.746;6.304;2022-09-09T08:31:16;16.90;99.90
59556;DHT22;45374;52.746;6.304;2022-09-09T08:33:43;16.80;99.90
59556;DHT22;45374;52.746;6.304;2022-09-09T08:36:12;16.90;99.90
59556;DHT22;45374;52.746;6.304;2022-09-09T08:38:41;16.80;99.90
59556;DHT22;45374;52.746;6.304;2022-09-09T08:41:36;17.00;99.90
59556;DHT22;45374;52.746;6.304;2022-09-09T08:44:31;17.00;99.90
59556;DHT22;45374;52.746;6.304;2022-09-09T08:47:20;17.00;99.90
59556;DHT22;45374;52.746;6.304;2022-09-09T08:50:11;17.10;99.90
59556;DHT22;45374;52.746;6.304;2022-09-09T08:55:48;17.10;99.90
59556;DHT22;45374;52.746;6.304;2022-09-09T08:58:20;17.20;99.90
59556;DHT22;45374;52.746;6.304;2022-09-09T09:09:21;17.20;99.90
59556;DHT22;45374;52.746;6.304;2022-09-09T09:11:53;17.30;99.90
59556;DHT22;45374;52.746;6.304;2022-09-09T09:14:24;17.30;99.90
59556;DHT22;45374;52.746;6.304;2022-09-09T09:16:54;17.10;99.90
59556;DHT22;45374;52.746;6.304;2022-09-09T09:19:22;17.20;99.90
59556;DHT22;45374;52.746;6.304;2022-09-09T09:22:00;17.20;99.90
59556;DHT22;45374;52.746;6.304;2022-09-09T09:27:16;17.30;99.90
59556;DHT22;45374;52.746;6.304;2022-09-09T09:29:44;17.40;99.90
59556;DHT22;45374;52.746;6.304;2022-09-09T09:32:14;17.40;99.90
59556;DHT22;45374;52.746;6.304;2022-09-09T09:34:41;17.30;99.90
59556;DHT22;45374;52.746;6.304;2022-09-09T09:37:16;17.30;99.90
59556;DHT22;45374;52.746;6.304;2022-09-09T09:39:45;17.30;99.90
59556;DHT22;45374;52.746;6.304;2022-09-09T09:42:16;17.40;99.90
59556;DHT22;45374;52.746;6.304;2022-09-09T09:44:43;17.40;99.90
59556;DHT22;45374;52.746;6.304;2022-09-09T09:47:21;17.50;99.90
59556;DHT22;45374;52.746;6.304;2022-09-09T09:49:57;17.60;99.90
59556;DHT22;45374;52.746;6.304;2022-09-09T09:52:29;17.60;99.90
59556;DHT22;45374;52.746;6.304;2022-09-09T09:54:57;17.80;99.90
59556;DHT22;45374;52.746;6.304;2022-09-09T09:57:26;18.10;99.90
59556;DHT22;45374;52.746;6.304;2022-09-09T10:00:12;18.10;99.90
59556;DHT22;45374;52.746;6.304;2022-09-09T10:02:40;17.90;99.90
59556;DHT22;45374;52.746;6.304;2022-09-09T10:05:24;18.00;99.90
59556;DHT22;45374;52.746;6.304;2022-09-09T10:10:54;18.00;99.90
59556;DHT22;45374;52.746;6.304;2022-09-09T10:19:06;17.80;99.90
59556;DHT22;45374;52.746;6.304;2022-09-09T10:42:46;17.90;99.90
59556;DHT22;45374;52.746;6.304;2022-09-09T10:45:23;17.80;99.90
59556;DHT22;45374;52.746;6.304;2022-09-09T10:48:20;17.70;99.90
59556;DHT22;45374;52.746;6.304;2022-09-09T10:51:54;17.70;99.90
59556;DHT22;45374;52.746;6.304;2022-09-09T10:56:29;17.80;99.90
59556;DHT22;45374;52.746;6.304;2022-09-09T10:59:06;17.70;99.90
59556;DHT22;45374;52.746;6.304;2022-09-09T11:01:56;17.80;99.90
59556;DHT22;45374;52.746;6.304;2022-09-09T11:04:27;17.70;99.90
59556;DHT22;45374;52.746;6.304;2022-09-09T11:06:56;17.70;99.90
59556;DHT22;45374;52.746;6.304;2022-09-09T11:09:25;17.50;99.90
59556;DHT22;45374;52.746;6.304;2022-09-09T11:11:57;17.50;99.90
59556;DHT22;45374;52.746;6.304;2022-09-09T11:14:26;17.40;99.90
59556;DHT22;45374;52.746;6.304;2022-09-09T11:21:53;17.30;99.90
59556;DHT22;45374;52.746;6.304;2022-09-09T11:24:40;17.40;99.90
59556;DHT22;45374;52.746;6.304;2022-09-09T11:27:17;17.50;99.90
59556;DHT22;45374;52.746;6.304;2022-09-09T11:40:28;18.30;99.90
59556;DHT22;45374;52.746;6.304;2022-09-09T11:43:19;18.50;99.90
59556;DHT22;45374;52.746;6.304;2022-09-09T11:45:58;18.70;99.90
59556;DHT22;45374;52.746;6.304;2022-09-09T11:48:39;18.90;99.90
59556;DHT22;45374;52.746;6.304;2022-09-09T11:54:01;19.20;99.90
59556;DHT22;45374;52.746;6.304;2022-09-09T11:59:37;19.20;99.90
59556;DHT22;45374;52.746;6.304;2022-09-09T12:04:46;19.10;99.90
59556;DHT22;45374;52.746;6.304;2022-09-09T12:07:34;19.20;99.90
59556;DHT22;45374;52.746;6.304;2022-09-09T12:10:55;19.00;99.90
59556;DHT22;45374;52.746;6.304;2022-09-09T12:13:24;19.00;99.90
59556;DHT22;45374;52.746;6.304;2022-09-09T12:15:52;18.90;99.90
59556;DHT22;45374;52.746;6.304;2022-09-09T12:18:39;18.80;99.90
59556;DHT22;45374;52.746;6.304;2022-09-09T12:21:33;18.80;99.90
59556;DHT22;45374;52.746;6.304;2022-09-09T12:24:10;18.80;99.90
59556;DHT22;45374;52.746;6.304;2022-09-09T12:29:25;18.70;99.90
59556;DHT22;45374;52.746;6.304;2022-09-09T12:32:06;18.50;99.90
59556;DHT22;45374;52.746;6.304;2022-09-09T12:34:39;18.30;99.90
59556;DHT22;45374;52.746;6.304;2022-09-09T12:39:55;18.50;99.90
59556;DHT22;45374;52.746;6.304;2022-09-09T12:42:22;18.80;99.90
59556;DHT22;45374;52.746;6.304;2022-09-09T12:44:54;18.80;99.90
59556;DHT22;45374;52.746;6.304;2022-09-09T12:47:23;18.90;99.90
59556;DHT22;45374;52.746;6.304;2022-09-09T12:49:50;18.80;99.90
59556;DHT22;45374;52.746;6.304;2022-09-09T12:52:28;18.90;99.90
59556;DHT22;45374;52.746;6.304;2022-09-09T12:54:56;18.70;99.90
59556;DHT22;45374;52.746;6.304;2022-09-09T12:57:24;18.70;99.90
59556;DHT22;45374;52.746;6.304;2022-09-09T12:59:51;18.60;99.90
59556;DHT22;45374;52.746;6.304;2022-09-09T13:04:45;18.60;99.90
59556;DHT22;45374;52.746;6.304;2022-09-09T13:07:12;18.60;99.90
59556;DHT22;45374;52.746;6.304;2022-09-09T13:09:39;18.60;99.90
59556;DHT22;45374;52.746;6.304;2022-09-09T13:12:07;18.60;99.90
59556;DHT22;45374;52.746;6.304;2022-09-09T13:14:38;18.60;99.90
59556;DHT22;45374;52.746;6.304;2022-09-09T13:17:06;18.60;99.90
59556;DHT22;45374;52.746;6.304;2022-09-09T13:19:38;18.40;99.90
59556;DHT22;45374;52.746;6.304;2022-09-09T13:22:34;18.20;99.90
59556;DHT22;45374;52.746;6.304;2022-09-09T13:25:05;17.80;99.90
59556;DHT22;45374;52.746;6.304;2022-09-09T13:28:01;17.70;99.90
59556;DHT22;45374;52.746;6.304;2022-09-09T13:30:29;17.70;99.90
59556;DHT22;45374;52.746;6.304;2022-09-09T13:35:57;18.30;99.90
59556;DHT22;45374;52.746;6.304;2022-09-09T13:38:24;18.50;99.90
59556;DHT22;45374;52.746;6.304;2022-09-09T13:41:10;18.60;99.90
59556;DHT22;45374;52.746;6.304;2022-09-09T13:43:46;18.90;99.90
59556;DHT22;45374;52.746;6.304;2022-09-09T13:46:36;18.80;99.90
59556;DHT22;45374;52.746;6.304;2022-09-09T13:51:41;18.90;99.90
59556;DHT22;45374;52.746;6.304;2022-09-09T13:54:11;18.80;99.90
59556;DHT22;45374;52.746;6.304;2022-09-09T13:56:39;18.90;99.90
59556;DHT22;45374;52.746;6.304;2022-09-09T13:59:09;18.80;99.90
59556;DHT22;45374;52.746;6.304;2022-09-09T14:01:35;18.60;99.90
59556;DHT22;45374;52.746;6.304;2022-09-09T14:04:03;18.70;99.90
59556;DHT22;45374;52.746;6.304;2022-09-09T14:06:29;18.80;99.90
59556;DHT22;45374;52.746;6.304;2022-09-09T14:08:55;18.90;99.90
59556;DHT22;45374;52.746;6.304;2022-09-09T14:11:21;19.00;99.90
59556;DHT22;45374;52.746;6.304;2022-09-09T14:13:48;19.00;99.90
59556;DHT22;45374;52.746;6.304;2022-09-09T14:16:18;19.10;99.90
59556;DHT22;45374;52.746;6.304;2022-09-09T14:18:45;19.10;99.90
59556;DHT22;45374;52.746;6.304;2022-09-09T14:21:11;19.10;99.90
59556;DHT22;45374;52.746;6.304;2022-09-09T14:23:37;19.10;99.90
59556;DHT22;45374;52.746;6.304;2022-09-09T14:26:07;19.00;99.90
59556;DHT22;45374;52.746;6.304;2022-09-09T14:28:33;19.10;99.90
59556;DHT22;45374;52.746;6.304;2022-09-09T14:31:00;19.10;99.90
59556;DHT22;45374;52.746;6.304;2022-09-09T14:33:26;19.10;99.90
59556;DHT22;45374;52.746;6.304;2022-09-09T14:35:58;19.00;99.90
59556;DHT22;45374;52.746;6.304;2022-09-09T14:38:24;18.80;99.90
59556;DHT22;45374;52.746;6.304;2022-09-09T14:40:50;18.70;99.90
59556;DHT22;45374;52.746;6.304;2022-09-09T14:43:16;18.70;99.90
59556;DHT22;45374;52.746;6.304;2022-09-09T14:45:41;18.90;99.90
59556;DHT22;45374;52.746;6.304;2022-09-09T14:48:08;18.90;99.90
59556;DHT22;45374;52.746;6.304;2022-09-09T14:50:34;19.00;99.90
59556;DHT22;45374;52.746;6.304;2022-09-09T14:53:02;19.00;99.90
59556;DHT22;45374;52.746;6.304;2022-09-09T14:55:27;19.10;99.90
59556;DHT22;45374;52.746;6.304;2022-09-09T14:57:54;19.10;99.90
59556;DHT22;45374;52.746;6.304;2022-09-09T15:00:20;19.00;99.90
59556;DHT22;45374;52.746;6.304;2022-09-09T15:02:45;18.80;99.90
59556;DHT22;45374;52.746;6.304;2022-09-09T15:05:11;18.70;99.90
59556;DHT22;45374;52.746;6.304;2022-09-09T15:07:36;18.60;99.90
59556;DHT22;45374;52.746;6.304;2022-09-09T15:10:03;18.50;99.90
59556;DHT22;45374;52.746;6.304;2022-09-09T15:12:29;18.40;99.90
59556;DHT22;45374;52.746;6.304;2022-09-09T15:14:55;18.40;99.90
59556;DHT22;45374;52.746;6.304;2022-09-09T15:17:21;18.40;99.90
59556;DHT22;45374;52.746;6.304;2022-09-09T15:19:47;18.30;99.90
59556;DHT22;45374;52.746;6.304;2022-09-09T15:22:13;18.30;99.90
59556;DHT22;45374;52.746;6.304;2022-09-09T15:24:38;18.10;99.90
59556;DHT22;45374;52.746;6.304;2022-09-09T15:27:04;18.10;99.90
59556;DHT22;45374;52.746;6.304;2022-09-09T15:29:29;17.90;99.90
59556;DHT22;45374;52.746;6.304;2022-09-09T15:31:55;18.00;99.90
59556;DHT22;45374;52.746;6.304;2022-09-09T15:34:21;17.80;99.90
59556;DHT22;45374;52.746;6.304;2022-09-09T15:36:47;17.70;99.90
59556;DHT22;45374;52.746;6.304;2022-09-09T15:39:15;17.60;99.90
59556;DHT22;45374;52.746;6.304;2022-09-09T15:41:42;17.50;99.90
59556;DHT22;45374;52.746;6.304;2022-09-09T15:44:09;17.50;99.90
59556;DHT22;45374;52.746;6.304;2022-09-09T15:46:39;17.50;99.90
59556;DHT22;45374;52.746;6.304;2022-09-09T15:49:10;17.50;99.90
59556;DHT22;45374;52.746;6.304;2022-09-09T15:51:37;17.50;99.90
59556;DHT22;45374;52.746;6.304;2022-09-09T15:54:04;17.60;99.90
59556;DHT22;45374;52.746;6.304;2022-09-09T15:56:30;17.50;99.90
59556;DHT22;45374;52.746;6.304;2022-09-09T15:58:57;17.50;99.90
59556;DHT22;45374;52.746;6.304;2022-09-09T16:01:25;17.50;99.90
59556;DHT22;45374;52.746;6.304;2022-09-09T16:03:51;17.50;99.90
59556;DHT22;45374;52.746;6.304;2022-09-09T16:06:19;17.60;99.90
59556;DHT22;45374;52.746;6.304;2022-09-09T16:08:48;17.60;99.90
59556;DHT22;45374;52.746;6.304;2022-09-09T16:11:26;17.50;99.90
59556;DHT22;45374;52.746;6.304;2022-09-09T16:13:53;17.60;99.90
59556;DHT22;45374;52.746;6.304;2022-09-09T16:16:22;17.60;99.90
59556;DHT22;45374;52.746;6.304;2022-09-09T16:18:50;17.50;99.90
59556;DHT22;45374;52.746;6.304;2022-09-09T16:21:25;17.50;99.90
59556;DHT22;45374;52.746;6.304;2022-09-09T16:23:52;17.60;99.90
59556;DHT22;45374;52.746;6.304;2022-09-09T16:26:21;17.60;99.90
59556;DHT22;45374;52.746;6.304;2022-09-09T16:28:47;17.50;99.90
59556;DHT22;45374;52.746;6.304;2022-09-09T16:31:18;17.60;99.90
59556;DHT22;45374;52.746;6.304;2022-09-09T16:33:45;17.40;99.90
59556;DHT22;45374;52.746;6.304;2022-09-09T16:36:23;17.50;99.90
59556;DHT22;45374;52.746;6.304;2022-09-09T16:38:53;17.60;99.90
59556;DHT22;45374;52.746;6.304;2022-09-09T16:41:20;17.50;99.90
59556;DHT22;45374;52.746;6.304;2022-09-09T16:43:45;17.50;99.90
59556;DHT22;45374;52.746;6.304;2022-09-09T16:46:14;17.40;99.90
59556;DHT22;45374;52.746;6.304;2022-09-09T16:48:41;17.50;99.90
59556;DHT22;45374;52.746;6.304;2022-09-09T16:51:14;17.40;99.90
59556;DHT22;45374;52.746;6.304;2022-09-09T16:53:40;17.40;99.90
59556;DHT22;45374;52.746;6.304;2022-09-09T16:56:18;17.30;99.90
59556;DHT22;45374;52.746;6.304;2022-09-09T16:58:49;17.30;99.90
59556;DHT22;45374;52.746;6.304;2022-09-09T17:01:15;17.20;99.90
59556;DHT22;45374;52.746;6.304;2022-09-09T17:03:41;17.20;99.90
59556;DHT22;45374;52.746;6.304;2022-09-09T17:06:14;17.20;99.90
59556;DHT22;45374;52.746;6.304;2022-09-09T17:08:41;17.20;99.90
59556;DHT22;45374;52.746;6.304;2022-09-09T17:11:17;17.10;99.90
59556;DHT22;45374;52.746;6.304;2022-09-09T17:13:45;17.10;99.90
59556;DHT22;45374;52.746;6.304;2022-09-09T17:16:11;17.10;99.90
59556;DHT22;45374;52.746;6.304;2022-09-09T17:18:37;17.00;99.90
59556;DHT22;45374;52.746;6.304;2022-09-09T17:21:12;17.10;99.90
59556;DHT22;45374;52.746;6.304;2022-09-09T17:23:40;17.00;99.90
59556;DHT22;45374;52.746;6.304;2022-09-09T17:26:07;17.10;99.90
59556;DHT22;45374;52.746;6.304;2022-09-09T17:28:34;16.90;99.90
59556;DHT22;45374;52.746;6.304;2022-09-09T17:31:01;17.10;99.90
59556;DHT22;45374;52.746;6.304;2022-09-09T17:33:28;17.00;99.90
59556;DHT22;45374;52.746;6.304;2022-09-09T17:36:00;16.90;99.90
59556;DHT22;45374;52.746;6.304;2022-09-09T17:38:27;17.00;99.90
59556;DHT22;45374;52.746;6.304;2022-09-09T17:41:17;16.90;99.90
59556;DHT22;45374;52.746;6.304;2022-09-09T17:43:44;16.90;99.90
59556;DHT22;45374;52.746;6.304;2022-09-09T17:46:31;16.80;99.90
59556;DHT22;45374;52.746;6.304;2022-09-09T17:48:59;16.90;99.90